createdAt,value
2023-04-05T00:00:49.304Z,7.70
2023-04-05T00:03:21.829Z,7.05
2023-04-05T00:05:52.420Z,9.30
2023-04-05T00:08:26.886Z,8.52
2023-04-05T00:10:56.610Z,8.00
2023-04-05T00:13:24.167Z,7.75
2023-04-05T00:15:57.274Z,8.38
2023-04-05T00:18:25.375Z,8.43
2023-04-05T00:20:55.033Z,8.32
2023-04-05T00:23:23.180Z,7.43
2023-04-05T00:25:50.536Z,7.65
2023-04-05T00:28:17.541Z,8.48
2023-04-05T00:33:39.488Z,7.88
2023-04-05T00:36:18.157Z,7.88
2023-04-05T00:38:46.353Z,8.15
2023-04-05T00:41:14.241Z,8.18
2023-04-05T00:43:42.297Z,8.88
2023-04-05T00:46:09.959Z,7.57
2023-04-05T00:48:38.183Z,7.70
2023-04-05T00:51:09.497Z,7.95
2023-04-05T00:53:40.981Z,7.65
2023-04-05T00:56:08.533Z,7.88
2023-04-05T00:58:35.681Z,7.25
2023-04-05T01:01:21.038Z,8.35
2023-04-05T01:04:03.089Z,7.28
2023-04-05T01:06:35.228Z,8.40
2023-04-05T01:09:13.988Z,7.78
2023-04-05T01:11:43.534Z,8.25
2023-04-05T01:14:10.678Z,7.63
2023-04-05T01:16:39.158Z,7.63
2023-04-05T01:19:06.132Z,8.57
2023-04-05T01:21:38.837Z,8.07
2023-04-05T01:24:30.990Z,8.20
2023-04-05T01:27:39.138Z,8.13
2023-04-05T01:30:40.242Z,8.05
2023-04-05T01:33:21.769Z,7.43
2023-04-05T01:35:58.751Z,8.35
2023-04-05T01:38:28.365Z,8.32
2023-04-05T01:40:55.499Z,7.70
2023-04-05T01:43:22.831Z,8.00
2023-04-05T01:45:49.792Z,7.78
2023-04-05T01:48:16.767Z,7.75
2023-04-05T01:50:44.210Z,7.65
2023-04-05T01:53:11.287Z,7.63
2023-04-05T01:55:38.315Z,7.40
2023-04-05T01:58:05.910Z,7.32
2023-04-05T02:00:32.845Z,6.53
2023-04-05T02:03:00.025Z,6.63
2023-04-05T02:05:27.171Z,7.07
2023-04-05T02:07:56.741Z,7.13
2023-04-05T02:10:24.778Z,7.57
2023-04-05T02:12:52.007Z,7.55
2023-04-05T02:15:18.856Z,6.75
2023-04-05T02:17:46.031Z,6.38
2023-04-05T02:20:14.923Z,7.13
2023-04-05T02:22:45.766Z,7.00
2023-04-05T02:25:13.360Z,6.90
2023-04-05T02:27:41.356Z,7.43
2023-04-05T02:30:08.822Z,6.97
2023-04-05T02:32:36.170Z,7.05
2023-04-05T02:35:03.469Z,6.75
2023-04-05T02:37:30.487Z,6.72
2023-04-05T02:39:57.678Z,7.25
2023-04-05T02:42:24.861Z,6.57
2023-04-05T02:44:55.289Z,7.13
2023-04-05T02:47:22.582Z,7.40
2023-04-05T02:49:50.003Z,6.60
2023-04-05T02:52:17.643Z,7.10
2023-04-05T02:54:44.888Z,8.25
2023-04-05T02:57:12.214Z,6.70
2023-04-05T02:59:39.798Z,7.32
2023-04-05T03:02:07.550Z,6.53
2023-04-05T03:04:34.932Z,6.95
2023-04-05T03:07:05.696Z,5.90
2023-04-05T03:09:34.006Z,6.90
2023-04-05T03:12:05.049Z,5.95
2023-04-05T03:14:32.637Z,6.40
2023-04-05T03:16:59.446Z,7.10
2023-04-05T03:19:27.310Z,6.00
2023-04-05T03:21:54.171Z,6.05
2023-04-05T03:24:21.479Z,7.07
2023-04-05T03:26:50.086Z,6.22
2023-04-05T03:29:17.947Z,6.05
2023-04-05T03:31:45.910Z,7.15
2023-04-05T03:34:13.399Z,6.40
2023-04-05T03:36:43.123Z,6.03
2023-04-05T03:39:11.015Z,6.45
2023-04-05T03:41:38.786Z,6.85
2023-04-05T03:44:06.803Z,7.97
2023-04-05T03:46:34.243Z,6.95
2023-04-05T03:49:02.485Z,7.50
2023-04-05T03:51:29.743Z,7.45
2023-04-05T03:53:57.067Z,7.60
2023-04-05T03:56:23.923Z,8.07
2023-04-05T03:58:53.627Z,8.15
2023-04-05T04:01:20.842Z,7.68
2023-04-05T04:03:47.800Z,8.45
2023-04-05T04:06:17.032Z,7.43
2023-04-05T04:08:45.627Z,7.75
2023-04-05T04:11:14.977Z,8.48
2023-04-05T04:13:42.132Z,8.25
2023-04-05T04:16:11.394Z,8.40
2023-04-05T04:18:38.728Z,8.50
2023-04-05T04:21:07.083Z,8.18
2023-04-05T04:23:34.953Z,8.48
2023-04-05T04:26:03.124Z,9.35
2023-04-05T04:28:33.122Z,7.88
2023-04-05T04:31:04.743Z,8.32
2023-04-05T04:33:31.648Z,8.25
2023-04-05T04:35:58.544Z,8.20
2023-04-05T04:38:26.212Z,8.82
2023-04-05T04:40:55.754Z,8.88
2023-04-05T04:43:26.873Z,6.80
2023-04-05T04:45:59.191Z,6.65
2023-04-05T04:48:26.097Z,6.55
2023-04-05T04:50:53.459Z,6.68
2023-04-05T04:53:24.106Z,6.35
2023-04-05T04:55:51.697Z,6.65
2023-04-05T04:58:18.757Z,6.82
2023-04-05T05:00:46.028Z,6.47
2023-04-05T05:03:13.735Z,6.60
2023-04-05T05:05:45.511Z,6.53
2023-04-05T05:08:12.761Z,6.45
2023-04-05T05:10:40.208Z,5.72
2023-04-05T05:13:07.714Z,6.80
2023-04-05T05:15:34.890Z,6.53
2023-04-05T05:18:01.867Z,6.50
2023-04-05T05:20:29.097Z,6.20
2023-04-05T05:22:56.143Z,7.07
2023-04-05T05:25:23.003Z,6.80
2023-04-05T05:27:53.658Z,6.60
2023-04-05T05:30:21.047Z,7.50
2023-04-05T05:32:49.062Z,7.00
2023-04-05T05:35:16.414Z,6.85
2023-04-05T05:37:43.287Z,6.72
2023-04-05T05:40:13.597Z,6.85
2023-04-05T05:42:41.282Z,6.40
2023-04-05T05:45:09.293Z,6.28
2023-04-05T05:47:37.379Z,6.22
2023-04-05T05:50:05.436Z,6.10
2023-04-05T05:52:34.891Z,7.38
2023-04-05T05:55:02.739Z,7.20
2023-04-05T05:57:29.601Z,7.10
2023-04-05T05:59:57.822Z,8.88
2023-04-05T06:02:25.261Z,7.28
2023-04-05T06:04:52.513Z,8.65
2023-04-05T06:07:19.428Z,7.22
2023-04-05T06:09:47.670Z,8.60
2023-04-05T06:12:14.588Z,7.93
2023-04-05T06:14:41.792Z,8.45
2023-04-05T06:17:09.126Z,7.50
2023-04-05T06:19:36.028Z,7.57
2023-04-05T06:22:03.135Z,8.70
2023-04-05T06:24:32.212Z,7.30
2023-04-05T06:27:01.305Z,7.75
2023-04-05T06:29:28.557Z,8.55
2023-04-05T06:31:55.687Z,8.60
2023-04-05T06:34:22.808Z,9.15
2023-04-05T06:36:50.306Z,8.75
2023-04-05T06:39:17.244Z,8.70
2023-04-05T06:41:44.053Z,8.80
2023-04-05T06:44:11.019Z,9.15
2023-04-05T06:46:38.141Z,9.57
2023-04-05T06:49:05.270Z,8.57
2023-04-05T06:51:32.323Z,8.75
2023-04-05T06:53:59.305Z,8.82
2023-04-05T06:56:26.779Z,9.15
2023-04-05T06:58:54.189Z,8.40
2023-04-05T07:01:21.453Z,8.10
2023-04-05T07:03:48.387Z,8.18
2023-04-05T07:06:15.856Z,8.80
2023-04-05T07:08:42.916Z,8.40
2023-04-05T07:11:09.926Z,8.23
2023-04-05T07:16:06.989Z,8.18
2023-04-05T07:18:33.872Z,8.05
2023-04-05T07:21:00.869Z,9.13
2023-04-05T07:23:28.671Z,8.13
2023-04-05T07:25:59.219Z,7.43
2023-04-05T07:28:26.270Z,7.50
2023-04-05T07:30:53.425Z,8.25
2023-04-05T07:33:21.040Z,7.57
2023-04-05T07:35:57.071Z,7.05
2023-04-05T07:38:24.226Z,7.28
2023-04-05T07:40:51.579Z,6.93
2023-04-05T07:43:19.048Z,6.57
2023-04-05T07:45:46.431Z,6.90
2023-04-05T07:48:13.416Z,6.88
2023-04-05T07:50:41.402Z,6.60
2023-04-05T07:53:08.532Z,6.75
2023-04-05T07:55:38.466Z,6.47
2023-04-05T07:58:05.670Z,6.05
2023-04-05T08:00:32.549Z,5.32
2023-04-05T08:03:02.116Z,5.60
2023-04-05T08:05:29.574Z,5.30
2023-04-05T08:07:58.546Z,4.93
2023-04-05T08:10:26.299Z,5.35
2023-04-05T08:12:53.586Z,6.13
2023-04-05T08:15:21.118Z,5.13
2023-04-05T08:17:48.000Z,4.30
2023-04-05T08:20:14.841Z,5.10
2023-04-05T08:22:41.670Z,4.90
2023-04-05T08:25:10.096Z,4.80
2023-04-05T08:27:36.899Z,4.22
2023-04-05T08:30:04.239Z,4.78
2023-04-05T08:32:32.395Z,4.63
2023-04-05T08:34:59.313Z,4.25
2023-04-05T08:37:29.167Z,4.82
2023-04-05T08:39:55.976Z,4.32
2023-04-05T08:42:46.555Z,4.50
2023-04-05T08:45:18.122Z,4.20
2023-04-05T08:47:46.578Z,4.50
2023-04-05T08:50:14.305Z,4.55
2023-04-05T08:52:43.197Z,4.53
2023-04-05T08:55:11.446Z,4.53
2023-04-05T08:57:42.597Z,4.03
2023-04-05T09:00:10.490Z,4.40
2023-04-05T09:02:38.390Z,4.57
2023-04-05T09:05:09.471Z,4.82
2023-04-05T09:07:37.568Z,4.43
2023-04-05T09:10:06.707Z,4.00
2023-04-05T09:12:35.985Z,4.13
2023-04-05T09:15:03.078Z,4.30
2023-04-05T13:13:50.838Z,6.07
2023-04-05T13:16:17.675Z,5.80
2023-04-05T13:18:44.875Z,5.82
2023-04-05T13:21:12.007Z,5.97
2023-04-05T13:23:40.186Z,5.78
2023-04-05T13:26:07.388Z,5.15
2023-04-05T13:28:34.635Z,5.95
2023-04-05T13:31:02.980Z,6.15
2023-04-05T13:33:29.877Z,5.22
2023-04-05T13:35:57.050Z,5.85
2023-04-05T13:38:23.894Z,5.32
2023-04-05T13:40:50.828Z,5.35
2023-04-05T13:43:18.025Z,5.30
2023-04-05T13:45:44.809Z,5.38
2023-04-05T13:48:11.966Z,6.28
2023-04-05T13:50:38.915Z,5.55
2023-04-05T13:53:06.121Z,5.18
2023-04-05T13:55:32.967Z,6.18
2023-04-05T13:58:00.048Z,6.60
2023-04-05T14:00:27.268Z,7.03
2023-04-05T14:02:54.623Z,6.47
2023-04-05T14:05:21.750Z,6.35
2023-04-05T14:07:50.616Z,5.85
2023-04-05T14:10:17.826Z,6.25
2023-04-05T14:12:44.883Z,5.95
2023-04-05T14:15:12.134Z,6.03
2023-04-05T14:17:39.067Z,6.60
2023-04-05T14:20:06.958Z,5.82
2023-04-05T14:22:34.390Z,6.00
2023-04-05T14:25:02.088Z,5.78
2023-04-05T14:27:28.926Z,5.45
2023-04-05T14:29:59.250Z,6.05
2023-04-05T14:32:27.125Z,6.50
2023-04-05T14:34:54.417Z,6.40
2023-04-05T14:37:21.914Z,5.72
2023-04-05T14:39:48.844Z,6.30
2023-04-05T14:42:16.656Z,5.90
2023-04-05T14:44:45.355Z,5.38
2023-04-05T14:47:12.240Z,5.25
2023-04-05T14:49:41.434Z,6.25
2023-04-05T14:52:08.494Z,5.78
2023-04-05T14:54:35.477Z,6.03
2023-04-05T14:57:02.298Z,5.25
2023-04-05T14:59:32.178Z,6.40
2023-04-05T15:01:59.128Z,5.32
2023-04-05T15:04:26.850Z,5.63
2023-04-05T15:06:53.832Z,7.03
2023-04-05T15:09:20.964Z,6.45
2023-04-05T15:11:47.806Z,6.80
2023-04-05T15:14:24.881Z,5.85
2023-04-05T15:16:56.156Z,6.40
2023-04-05T15:19:22.986Z,6.28
2023-04-05T15:21:50.047Z,5.60
2023-04-05T15:24:17.718Z,5.80
2023-04-05T15:26:44.722Z,5.57
2023-04-05T15:29:11.894Z,5.57
2023-04-05T15:31:39.861Z,6.40
2023-04-05T15:34:08.349Z,6.15
2023-04-05T15:36:36.380Z,6.28
2023-04-05T15:39:05.517Z,6.35
2023-04-05T15:41:33.808Z,5.65
2023-04-05T15:44:01.420Z,6.65
2023-04-05T15:46:29.467Z,6.55
2023-04-05T15:48:56.582Z,6.45
2023-04-05T15:51:24.094Z,6.50
2023-04-05T15:53:51.761Z,6.88
2023-04-05T15:56:18.892Z,7.35
2023-04-05T15:58:45.841Z,6.55
2023-04-05T16:01:14.300Z,6.72
2023-04-05T16:03:42.584Z,6.72
2023-04-05T16:06:09.599Z,6.35
2023-04-05T16:08:36.829Z,6.40
2023-04-05T16:11:04.914Z,7.70
2023-04-05T16:13:31.924Z,7.22
2023-04-05T16:15:59.531Z,7.90
2023-04-05T16:18:28.110Z,7.80
2023-04-05T16:20:56.260Z,7.97
2023-04-05T16:23:23.287Z,7.22
2023-04-05T16:25:50.406Z,8.32
2023-04-05T16:28:17.432Z,7.28
2023-04-05T16:30:46.350Z,6.93
2023-04-05T16:33:16.592Z,7.93
2023-04-05T16:35:44.739Z,8.23
2023-04-05T16:38:11.684Z,7.68
2023-04-05T16:40:38.942Z,8.55
2023-04-05T16:43:05.932Z,8.85
2023-04-05T16:45:33.998Z,8.10
2023-04-05T16:48:01.279Z,8.05
2023-04-05T16:50:28.237Z,7.55
2023-04-05T16:52:55.106Z,8.27
2023-04-05T16:55:22.279Z,8.70
2023-04-05T16:57:49.106Z,8.75
2023-04-05T17:00:16.288Z,8.88
2023-04-05T17:02:47.609Z,7.88
2023-04-05T17:05:14.784Z,8.35
2023-04-05T17:07:41.842Z,8.07
2023-04-05T17:10:09.511Z,8.35
2023-04-05T17:12:40.916Z,8.23
2023-04-05T17:15:09.488Z,9.60
2023-04-05T17:17:36.991Z,8.52
2023-04-05T17:20:06.210Z,8.23
2023-04-05T17:22:33.490Z,8.05
2023-04-05T17:25:02.799Z,8.35
2023-04-05T17:27:29.898Z,8.48
2023-04-05T17:29:56.930Z,8.57
2023-04-05T17:32:27.079Z,7.90
2023-04-05T17:34:54.478Z,7.88
2023-04-05T17:37:21.372Z,8.30
2023-04-05T17:39:48.748Z,8.13
2023-04-05T17:42:17.453Z,7.55
2023-04-05T17:44:45.116Z,8.85
2023-04-05T17:47:12.385Z,9.15
2023-04-05T17:49:39.570Z,8.55
2023-04-05T17:52:09.673Z,7.80
2023-04-05T17:54:37.215Z,8.90
2023-04-05T17:57:07.128Z,8.07
2023-04-05T17:59:35.604Z,8.52
2023-04-05T18:02:02.658Z,8.05
2023-04-05T18:04:29.629Z,8.32
2023-04-05T18:06:56.995Z,8.13
2023-04-05T18:09:24.005Z,7.40
2023-04-05T18:11:51.499Z,7.05
2023-04-05T18:14:18.428Z,7.30
2023-04-05T18:16:45.419Z,6.70
2023-04-05T18:19:20.360Z,7.13
2023-04-05T18:21:47.543Z,7.65
2023-04-05T18:24:14.970Z,8.30
2023-04-05T18:26:42.010Z,7.85
2023-04-05T18:29:09.271Z,7.68
2023-04-05T18:31:36.578Z,8.50
2023-04-05T18:34:06.506Z,7.82
2023-04-05T18:36:33.438Z,8.05
2023-04-05T18:39:05.068Z,13.98
2023-04-05T18:41:32.404Z,12.93
2023-04-05T18:43:59.403Z,11.23
2023-04-05T18:46:27.001Z,10.38
2023-04-05T18:48:57.965Z,10.38
2023-04-05T18:51:28.923Z,9.55
2023-04-05T18:53:56.577Z,10.73
2023-04-05T18:56:23.987Z,11.80
2023-04-05T18:58:51.228Z,12.40
2023-04-05T19:01:20.239Z,11.40
2023-04-05T19:03:47.901Z,11.60
2023-04-05T19:06:15.796Z,12.07
2023-04-05T19:08:43.288Z,12.32
2023-04-05T19:11:13.704Z,11.32
2023-04-05T19:13:46.060Z,12.73
2023-04-05T19:16:16.089Z,12.30
2023-04-05T19:18:43.351Z,12.40
2023-04-05T19:21:10.515Z,11.50
2023-04-05T19:23:38.896Z,11.77
2023-04-05T19:26:05.925Z,11.02
2023-04-05T19:28:33.201Z,11.60
2023-04-05T19:31:01.389Z,11.18
2023-04-05T19:33:31.637Z,11.70
2023-04-05T19:35:58.932Z,11.10
2023-04-05T19:38:26.470Z,10.85
2023-04-05T19:40:53.856Z,11.10
2023-04-05T19:43:21.205Z,10.32
2023-04-05T19:45:52.280Z,10.25
2023-04-05T19:48:41.709Z,10.23
2023-04-05T19:51:10.527Z,10.52
2023-04-05T19:53:49.606Z,10.65
2023-04-05T19:56:22.165Z,9.02
2023-04-05T19:58:55.151Z,10.48
2023-04-05T20:04:09.482Z,10.38
2023-04-05T20:06:36.517Z,10.18
2023-04-05T20:09:06.123Z,9.75
2023-04-05T20:11:33.848Z,10.05
2023-04-05T20:14:02.708Z,9.68
2023-04-05T20:16:34.912Z,11.27
2023-04-05T20:19:09.986Z,9.27
2023-04-05T20:21:37.950Z,10.45
2023-04-05T20:24:08.585Z,10.00
2023-04-05T20:26:36.040Z,11.60
2023-04-05T20:29:07.296Z,10.20
2023-04-05T20:31:39.333Z,11.98
2023-04-05T20:34:10.164Z,11.05
2023-04-05T20:36:56.890Z,11.65
2023-04-05T20:39:23.981Z,11.77
2023-04-05T20:41:51.462Z,12.40
2023-04-05T20:44:18.897Z,11.90
2023-04-05T20:46:46.855Z,11.75
2023-04-05T20:49:13.930Z,11.82
2023-04-05T20:51:43.000Z,12.75
2023-04-05T20:54:10.522Z,11.43
2023-04-05T20:56:37.452Z,12.20
2023-04-05T20:59:07.731Z,11.48
2023-04-05T21:01:36.917Z,11.88
2023-04-05T21:04:07.332Z,12.20
2023-04-05T21:06:36.659Z,13.05
2023-04-05T21:09:03.854Z,13.23
2023-04-05T21:11:30.910Z,13.55
2023-04-05T21:13:58.646Z,13.93
2023-04-05T21:16:26.862Z,13.43
2023-04-05T21:18:53.938Z,13.90
2023-04-05T21:21:20.936Z,13.15
2023-04-05T21:23:49.278Z,14.40
2023-04-05T21:26:19.031Z,13.73
2023-04-05T21:28:46.205Z,13.30
2023-04-05T21:31:13.139Z,14.65
2023-04-05T21:33:40.357Z,14.38
2023-04-05T21:36:07.570Z,13.35
2023-04-05T21:38:35.628Z,14.07
2023-04-05T21:41:04.025Z,12.63
2023-04-05T21:43:31.109Z,10.55
2023-04-05T21:45:58.825Z,11.88
2023-04-05T21:48:28.472Z,10.57
2023-04-05T21:50:55.996Z,11.38
2023-04-05T21:53:25.552Z,10.80
2023-04-05T21:55:53.097Z,11.32
2023-04-05T21:58:20.329Z,11.52
2023-04-05T22:00:47.816Z,11.38
2023-04-05T22:03:19.376Z,11.18
2023-04-05T22:05:48.508Z,12.68
2023-04-05T22:08:15.547Z,12.98
2023-04-05T22:10:43.851Z,11.90
2023-04-05T22:13:11.452Z,12.15
2023-04-05T22:15:41.994Z,12.90
2023-04-05T22:18:12.529Z,12.55
2023-04-05T22:20:39.509Z,13.45
2023-04-05T22:23:06.991Z,12.60
2023-04-05T22:25:34.579Z,13.13
2023-04-05T22:28:06.494Z,13.40
2023-04-05T22:30:43.959Z,12.32
2023-04-05T22:33:17.947Z,12.95
2023-04-05T22:35:45.248Z,13.30
2023-04-05T22:38:13.491Z,12.20
2023-04-05T22:40:42.244Z,14.60
2023-04-05T22:43:10.258Z,13.60
2023-04-05T22:45:37.930Z,13.00
2023-04-05T22:48:07.117Z,13.55
2023-04-05T22:50:37.305Z,13.98
2023-04-05T22:53:04.381Z,14.32
2023-04-05T22:55:31.479Z,14.07
2023-04-05T22:58:01.837Z,14.52
2023-04-05T23:00:37.525Z,13.77
2023-04-05T23:03:04.937Z,14.63
2023-04-05T23:05:34.226Z,14.27
2023-04-05T23:08:01.483Z,13.40
2023-04-05T23:10:30.405Z,13.40
2023-04-05T23:12:57.766Z,14.70
2023-04-05T23:15:24.975Z,13.40
2023-04-05T23:17:52.077Z,14.73
2023-04-05T23:20:19.329Z,14.75
2023-04-05T23:22:46.641Z,15.23
2023-04-05T23:25:13.699Z,15.82
2023-04-05T23:27:40.834Z,14.02
2023-04-05T23:30:11.465Z,14.73
2023-04-05T23:32:38.798Z,15.05
2023-04-05T23:35:08.899Z,14.20
2023-04-05T23:37:36.132Z,13.63
2023-04-05T23:40:04.605Z,15.25
2023-04-05T23:42:31.600Z,14.63
2023-04-05T23:45:00.331Z,13.77
2023-04-05T23:47:27.278Z,15.27
2023-04-05T23:49:54.267Z,14.35
2023-04-05T23:52:21.395Z,14.93
2023-04-05T23:54:48.345Z,14.13
2023-04-05T23:57:15.878Z,15.68
2023-04-05T23:59:43.034Z,14.30
